Terminal Aerodrome Forecast
Issued by NWS

Home | Current Version | Previous Version | Text Only | Print | Product List | Glossary On
Versions: 1 2 3 4 5 6 7 8 9 10 11 12 13 14 15 16 17 18 19 20
699
FTUS43 KIWX 212327
TAFSBN
TAF
KSBN 212327Z 2200/2224 13008KT P6SM VCSH OVC035
     FM220500 21006KT P6SM BKN015
     FM220700 22005KT 3SM BR BKN008
     FM221600 30008KT P6SM BKN012
     FM222200 32009KT P6SM SCT070=

USA.gov is the U.S. government's official web portal to all federal, state and local government web resources and services.